Time;durP1;ratioP1;P1;durP2;ratioP2;P2;SDS_P1;SDS_P2;PMS_P1;PMS_P2;Temp;Humidity;BMP_temperature;BMP_pressure;BME280_temperature;BME280_humidity;BME280_pressure;Samples;Min_cycle;Max_cycle;Signal;HPM_P1;HPM_P2
2024/02/18 00:00:56;;;;;;;15.80;11.75;;;7.80;99.90;;;;;;4969130;28;20043;-64
2024/02/18 00:03:23;;;;;;;19.63;12.38;;;7.70;99.90;;;;;;4967885;28;20101;-65
2024/02/18 00:05:49;;;;;;;15.10;11.82;;;7.70;99.90;;;;;;4965519;28;20073;-65
2024/02/18 00:08:16;;;;;;;15.43;12.15;;;7.70;99.90;;;;;;4971052;28;20050;-64
2024/02/18 00:10:43;;;;;;;18.50;12.23;;;7.70;99.90;;;;;;4950798;28;20141;-64
2024/02/18 00:13:10;;;;;;;13.85;10.13;;;7.70;99.90;;;;;;4969378;28;20058;-64
2024/02/18 00:15:37;;;;;;;13.30;9.70;;;7.80;99.90;;;;;;4967885;28;20111;-65
2024/02/18 00:18:04;;;;;;;14.98;10.18;;;7.80;99.90;;;;;;4965148;28;20324;-65
2024/02/18 00:20:30;;;;;;;16.83;9.90;;;7.80;99.90;;;;;;4971931;28;20051;-64
2024/02/18 00:22:57;;;;;;;14.63;9.13;;;7.80;99.90;;;;;;4967039;28;20054;-64
2024/02/18 00:25:24;;;;;;;16.30;10.10;;;7.90;99.90;;;;;;4966986;28;20094;-65
2024/02/18 00:27:51;;;;;;;13.65;9.85;;;7.90;99.90;;;;;;4972245;28;20089;-65
2024/02/18 00:30:18;;;;;;;12.82;8.82;;;7.90;99.90;;;;;;4972748;28;20054;-64
2024/02/18 00:32:44;;;;;;;12.02;9.20;;;7.90;99.90;;;;;;4967233;28;20431;-64
2024/02/18 00:35:11;;;;;;;14.85;8.90;;;8.00;99.90;;;;;;4964298;28;20578;-64
2024/02/18 00:37:38;;;;;;;15.02;8.30;;;8.00;99.90;;;;;;4965307;28;20099;-64
2024/02/18 00:40:06;;;;;;;11.25;8.38;;;8.10;99.90;;;;;;4970565;28;20042;-64
2024/02/18 00:42:33;;;;;;;10.60;8.27;;;8.10;99.90;;;;;;4968530;28;20054;-64
2024/02/18 00:44:59;;;;;;;9.68;7.30;;;8.10;99.90;;;;;;4971750;28;20064;-64
2024/02/18 00:47:26;;;;;;;11.25;8.25;;;8.10;99.90;;;;;;4965374;28;20502;-64
2024/02/18 00:49:53;;;;;;;16.27;7.60;;;8.20;99.90;;;;;;4961343;28;20094;-64
2024/02/18 00:52:21;;;;;;;9.65;7.25;;;8.20;99.90;;;;;;4968436;28;20057;-64
2024/02/18 00:54:48;;;;;;;11.52;6.68;;;8.20;99.90;;;;;;4970784;28;20055;-65
2024/02/18 00:57:15;;;;;;;9.32;6.57;;;8.10;99.90;;;;;;4968089;28;20051;-64
2024/02/18 00:59:41;;;;;;;8.77;6.05;;;8.10;99.90;;;;;;4968934;28;20098;-64
2024/02/18 01:02:08;;;;;;;10.48;5.90;;;8.10;99.90;;;;;;4967144;28;20125;-65
2024/02/18 01:04:35;;;;;;;9.35;6.28;;;8.10;99.90;;;;;;4966187;28;20070;-65
2024/02/18 01:07:01;;;;;;;11.02;6.32;;;8.10;99.90;;;;;;4970058;28;20132;-64
2024/02/18 01:09:28;;;;;;;13.25;6.47;;;8.00;99.90;;;;;;4967920;28;20134;-64
2024/02/18 01:11:56;;;;;;;10.18;7.28;;;7.90;99.90;;;;;;4969043;28;20062;-65
2024/02/18 01:14:23;;;;;;;7.60;6.32;;;7.90;99.90;;;;;;4966170;28;20117;-65
2024/02/18 01:16:50;;;;;;;15.02;8.15;;;7.80;99.90;;;;;;4967749;28;20170;-65
2024/02/18 01:19:17;;;;;;;11.07;8.13;;;7.70;99.90;;;;;;4966298;28;20132;-65
2024/02/18 01:21:44;;;;;;;15.73;8.15;;;7.60;99.90;;;;;;4964603;28;20537;-65
2024/02/18 01:24:11;;;;;;;12.85;8.50;;;7.50;99.90;;;;;;4957745;28;20491;-64
2024/02/18 01:26:37;;;;;;;11.90;7.75;;;7.50;99.90;;;;;;4975082;28;20053;-64
2024/02/18 01:29:04;;;;;;;10.60;7.88;;;7.50;99.90;;;;;;4968421;28;20471;-65
2024/02/18 01:31:32;;;;;;;9.20;7.32;;;7.50;99.90;;;;;;4968130;28;20101;-64
2024/02/18 01:33:59;;;;;;;12.80;7.05;;;7.50;99.90;;;;;;4970854;28;20058;-67
2024/02/18 01:36:25;;;;;;;9.98;6.82;;;7.40;99.90;;;;;;4968041;28;20141;-65
2024/02/18 01:38:52;;;;;;;10.15;6.88;;;7.40;99.90;;;;;;4968106;28;20109;-64
2024/02/18 01:41:19;;;;;;;11.68;6.20;;;7.30;99.90;;;;;;4968551;28;20049;-64
2024/02/18 01:43:46;;;;;;;9.65;6.45;;;7.20;99.90;;;;;;4970550;28;20459;-65
2024/02/18 01:46:12;;;;;;;10.43;6.65;;;7.20;99.90;;;;;;4969853;28;20057;-64
2024/02/18 01:48:39;;;;;;;9.70;7.40;;;7.20;99.90;;;;;;4969891;28;20105;-64
2024/02/18 01:51:07;;;;;;;9.38;7.03;;;7.20;99.90;;;;;;4951214;28;20061;-64
2024/02/18 01:53:36;;;;;;;10.55;6.45;;;7.30;99.90;;;;;;4971383;28;20050;-65
2024/02/18 01:56:02;;;;;;;12.00;7.68;;;7.40;99.90;;;;;;4970469;28;20121;-65
2024/02/18 01:58:30;;;;;;;10.30;6.82;;;7.40;99.90;;;;;;4975523;28;20104;-65
2024/02/18 02:00:58;;;;;;;7.80;5.80;;;7.50;99.90;;;;;;4968566;28;20097;-64
2024/02/18 02:03:25;;;;;;;11.05;7.05;;;7.60;99.90;;;;;;4967693;28;20282;-64
2024/02/18 02:05:54;;;;;;;6.18;5.53;;;7.70;99.90;;;;;;4968693;28;20678;-64
2024/02/18 02:08:22;;;;;;;8.35;6.00;;;7.80;99.90;;;;;;4966955;28;20175;-64
2024/02/18 02:10:50;;;;;;;8.85;5.93;;;7.80;99.90;;;;;;4969983;28;20078;-64
2024/02/18 02:13:17;;;;;;;9.55;6.45;;;7.80;99.90;;;;;;4970209;28;20463;-65
2024/02/18 02:15:45;;;;;;;7.70;6.15;;;7.90;99.90;;;;;;4968990;28;20420;-64
2024/02/18 02:18:12;;;;;;;8.82;5.55;;;8.10;99.90;;;;;;4968288;28;20051;-65
2024/02/18 02:20:39;;;;;;;8.98;5.57;;;8.10;99.90;;;;;;4963749;28;20057;-64
2024/02/18 02:23:06;;;;;;;10.43;7.00;;;8.20;99.90;;;;;;4973540;28;20085;-65
2024/02/18 02:25:34;;;;;;;9.98;5.70;;;8.20;99.90;;;;;;4969461;28;20817;-65
2024/02/18 02:28:17;;;;;;;11.18;5.75;;;8.20;99.90;;;;;;4971160;28;20058;-64
2024/02/18 02:30:45;;;;;;;6.55;4.88;;;8.20;99.90;;;;;;4969900;28;20055;-64
2024/02/18 02:33:13;;;;;;;9.95;4.63;;;8.30;99.90;;;;;;4971264;28;20058;-64
2024/02/18 02:35:40;;;;;;;8.20;5.68;;;8.30;99.90;;;;;;4967868;28;20574;-65
2024/02/18 02:38:06;;;;;;;7.28;5.70;;;8.40;99.90;;;;;;4969325;28;20054;-64
2024/02/18 02:40:33;;;;;;;7.20;4.82;;;8.40;99.90;;;;;;4966521;28;20470;-65
2024/02/18 02:43:01;;;;;;;9.52;5.32;;;8.40;99.90;;;;;;4967747;28;20050;-65
2024/02/18 02:45:28;;;;;;;8.23;5.15;;;8.40;99.90;;;;;;4969373;28;20046;-65
2024/02/18 02:47:55;;;;;;;7.03;5.20;;;8.40;99.90;;;;;;4967882;28;20062;-65
2024/02/18 02:50:21;;;;;;;7.25;5.45;;;8.40;99.90;;;;;;4966234;28;20141;-64
2024/02/18 02:52:48;;;;;;;8.57;4.93;;;8.50;99.90;;;;;;4967956;28;20314;-64
2024/02/18 02:55:15;;;;;;;7.70;5.20;;;8.50;99.90;;;;;;4969233;28;20051;-64
2024/02/18 02:57:42;;;;;;;11.02;5.82;;;8.50;99.90;;;;;;4970722;28;20543;-64
2024/02/18 03:00:09;;;;;;;10.23;6.15;;;8.50;99.90;;;;;;4969614;28;20096;-65
2024/02/18 03:02:37;;;;;;;7.03;5.85;;;8.50;99.90;;;;;;4968285;28;20046;-64
2024/02/18 03:05:05;;;;;;;12.98;5.57;;;8.50;99.90;;;;;;4966371;28;20050;-65
2024/02/18 03:07:33;;;;;;;10.00;6.05;;;8.50;99.90;;;;;;4970402;28;20444;-65
2024/02/18 03:09:59;;;;;;;11.20;5.97;;;8.60;99.90;;;;;;4953132;28;20058;-65
2024/02/18 03:12:26;;;;;;;13.20;5.63;;;8.60;99.90;;;;;;4966085;28;20047;-64
2024/02/18 03:14:53;;;;;;;9.55;6.53;;;8.60;99.90;;;;;;4969612;28;20475;-65
2024/02/18 03:17:20;;;;;;;8.13;5.43;;;8.60;99.90;;;;;;4968019;28;20050;-65
2024/02/18 03:19:47;;;;;;;9.52;6.05;;;8.60;99.90;;;;;;4967254;28;20396;-65
2024/02/18 03:22:21;;;;;;;8.32;6.10;;;8.60;99.90;;;;;;4967021;28;20049;-65
2024/02/18 03:24:48;;;;;;;13.80;6.88;;;8.60;99.90;;;;;;4968791;28;20045;-65
2024/02/18 03:27:17;;;;;;;11.05;6.63;;;8.60;99.90;;;;;;4968986;28;20054;-65
2024/02/18 03:29:45;;;;;;;15.20;8.88;;;8.60;99.90;;;;;;4963182;28;20058;-65
2024/02/18 03:32:13;;;;;;;9.05;7.53;;;8.60;99.90;;;;;;4965836;28;20057;-65
2024/02/18 03:34:42;;;;;;;8.30;6.53;;;8.60;99.90;;;;;;4966691;28;20050;-65
2024/02/18 03:37:09;;;;;;;9.35;7.15;;;8.60;99.90;;;;;;4964512;28;20074;-65
2024/02/18 03:39:37;;;;;;;7.85;6.90;;;8.50;99.90;;;;;;4968361;28;20495;-65
2024/02/18 03:42:04;;;;;;;11.38;7.75;;;8.50;99.90;;;;;;4970965;28;20122;-65
2024/02/18 03:44:31;;;;;;;9.30;7.47;;;8.40;99.90;;;;;;4968994;28;20043;-65
2024/02/18 03:46:58;;;;;;;11.02;8.55;;;8.40;99.90;;;;;;4967929;28;20117;-65
2024/02/18 03:49:24;;;;;;;10.70;7.97;;;8.40;99.90;;;;;;4965303;28;20301;-64
2024/02/18 03:51:51;;;;;;;13.18;7.20;;;8.40;99.90;;;;;;4967473;28;20158;-65
2024/02/18 03:54:18;;;;;;;10.55;8.82;;;8.40;99.90;;;;;;4967527;28;20042;-65
2024/02/18 03:56:45;;;;;;;19.67;13.32;;;8.40;99.90;;;;;;4967583;28;20070;-65
2024/02/18 03:59:15;;;;;;;15.93;9.85;;;8.30;99.90;;;;;;4963714;28;20133;-65
2024/02/18 04:01:42;;;;;;;12.45;8.02;;;8.20;99.90;;;;;;4965552;28;20138;-65
2024/02/18 04:04:09;;;;;;;10.80;7.75;;;8.20;99.90;;;;;;4964029;28;20409;-65
2024/02/18 04:06:36;;;;;;;8.60;7.35;;;8.10;99.90;;;;;;4966560;28;20046;-65
2024/02/18 04:09:03;;;;;;;15.00;8.27;;;8.10;99.90;;;;;;4966760;28;20050;-65
2024/02/18 04:11:30;;;;;;;10.10;7.85;;;8.10;99.90;;;;;;4969971;28;20070;-65
2024/02/18 04:13:57;;;;;;;15.70;10.48;;;8.10;99.90;;;;;;4967253;28;20495;-65
2024/02/18 04:16:24;;;;;;;20.15;12.85;;;8.10;99.90;;;;;;4968376;28;20491;-65
2024/02/18 04:18:52;;;;;;;19.58;14.35;;;8.10;99.90;;;;;;4967746;28;20358;-64
2024/02/18 04:21:19;;;;;;;24.88;17.58;;;8.10;99.90;;;;;;4964935;28;20485;-65
2024/02/18 04:23:46;;;;;;;31.05;20.67;;;8.10;99.90;;;;;;4963688;28;20061;-65
2024/02/18 04:26:13;;;;;;;35.35;22.45;;;8.00;99.90;;;;;;4969313;28;20055;-65
2024/02/18 04:28:40;;;;;;;30.85;22.95;;;7.90;99.90;;;;;;4964773;28;20550;-64
2024/02/18 04:31:07;;;;;;;38.85;23.88;;;7.80;99.90;;;;;;4958807;28;20447;-65
2024/02/18 04:33:33;;;;;;;35.10;23.77;;;7.70;99.90;;;;;;4966195;28;20503;-64
2024/02/18 04:36:01;;;;;;;40.78;24.42;;;7.60;99.90;;;;;;4965676;28;20051;-64
2024/02/18 04:38:27;;;;;;;35.38;25.60;;;7.50;99.90;;;;;;4963926;28;20043;-65
2024/02/18 04:40:54;;;;;;;38.63;25.85;;;7.40;99.90;;;;;;4965482;28;20448;-64
2024/02/18 04:43:21;;;;;;;37.90;24.17;;;7.40;99.90;;;;;;4966165;28;20047;-64
2024/02/18 04:45:47;;;;;;;36.30;24.42;;;7.30;99.90;;;;;;4966987;28;20050;-65
2024/02/18 04:48:15;;;;;;;36.08;24.88;;;7.40;99.90;;;;;;4966946;28;20431;-64
2024/02/18 04:50:42;;;;;;;32.20;23.25;;;7.40;99.90;;;;;;4965302;28;20054;-64
2024/02/18 04:53:08;;;;;;;34.55;21.33;;;7.40;99.90;;;;;;4965359;28;20153;-64
2024/02/18 04:55:35;;;;;;;32.78;22.23;;;7.50;99.90;;;;;;4965987;28;20125;-64
2024/02/18 04:58:02;;;;;;;25.20;17.05;;;7.50;99.90;;;;;;4970805;28;20090;-64
2024/02/18 05:00:29;;;;;;;20.58;15.10;;;7.50;99.90;;;;;;4970614;28;20476;-64
2024/02/18 05:02:56;;;;;;;40.75;26.42;;;7.50;99.90;;;;;;4969189;28;20090;-64
2024/02/18 05:05:23;;;;;;;18.85;12.00;;;7.60;99.90;;;;;;4969329;28;20053;-64
2024/02/18 05:07:49;;;;;;;16.00;11.48;;;7.60;99.90;;;;;;4974261;28;20077;-64
2024/02/18 05:10:17;;;;;;;20.48;12.55;;;7.60;99.90;;;;;;4974413;28;20049;-64
2024/02/18 05:12:44;;;;;;;24.88;17.05;;;7.60;99.90;;;;;;4968915;28;20058;-64
2024/02/18 05:15:11;;;;;;;22.77;15.02;;;7.60;99.90;;;;;;4969939;28;20050;-65
2024/02/18 05:17:38;;;;;;;16.83;11.82;;;7.70;99.90;;;;;;4970843;28;20046;-64
2024/02/18 05:20:09;;;;;;;15.90;11.25;;;7.70;99.90;;;;;;4973753;28;20055;-64
2024/02/18 05:22:40;;;;;;;15.48;11.55;;;7.70;99.90;;;;;;4970095;28;20054;-64
2024/02/18 05:25:07;;;;;;;20.90;14.20;;;7.70;99.90;;;;;;4970934;28;20477;-64
2024/02/18 05:27:34;;;;;;;24.30;15.30;;;7.70;99.90;;;;;;4976166;28;20077;-64
2024/02/18 05:30:01;;;;;;;27.90;17.88;;;7.70;99.90;;;;;;4974033;28;20050;-64
2024/02/18 05:32:28;;;;;;;20.98;15.40;;;7.70;99.90;;;;;;4972546;28;20495;-65
2024/02/18 05:34:54;;;;;;;19.83;12.15;;;7.70;99.90;;;;;;4969369;28;20039;-64
2024/02/18 05:37:21;;;;;;;17.08;12.85;;;7.70;99.90;;;;;;4967705;28;20042;-64
2024/02/18 05:39:48;;;;;;;17.40;12.13;;;7.70;99.90;;;;;;4972098;28;20057;-65
2024/02/18 05:42:15;;;;;;;16.30;11.77;;;7.70;99.90;;;;;;4969252;28;20453;-64
2024/02/18 05:44:42;;;;;;;16.20;11.55;;;7.70;99.90;;;;;;4974787;28;20066;-64
2024/02/18 05:47:09;;;;;;;19.48;12.02;;;7.60;99.90;;;;;;4972823;28;20063;-65
2024/02/18 05:49:36;;;;;;;17.60;12.63;;;7.60;99.90;;;;;;4970636;28;21145;-64
2024/02/18 05:52:10;;;;;;;22.58;14.07;;;7.60;99.90;;;;;;4976588;28;20062;-65
2024/02/18 05:54:37;;;;;;;19.77;14.15;;;7.60;99.90;;;;;;4976673;28;20054;-64
2024/02/18 05:57:05;;;;;;;21.45;13.10;;;7.60;99.90;;;;;;4975869;28;20566;-64
2024/02/18 05:59:32;;;;;;;16.73;13.10;;;7.60;99.90;;;;;;4971239;28;20118;-64
2024/02/18 06:01:59;;;;;;;18.73;13.05;;;7.60;99.90;;;;;;4971423;28;20042;-65
2024/02/18 06:04:26;;;;;;;12.93;10.57;;;7.70;99.90;;;;;;4962810;28;20047;-64
2024/02/18 06:06:52;;;;;;;20.70;12.23;;;7.70;99.90;;;;;;4968283;28;20059;-65
2024/02/18 06:09:19;;;;;;;20.10;13.13;;;7.70;99.90;;;;;;4964107;28;20065;-65
2024/02/18 06:11:46;;;;;;;16.35;11.32;;;7.70;99.90;;;;;;4953519;28;20043;-64
2024/02/18 06:14:13;;;;;;;21.15;13.40;;;7.70;99.90;;;;;;4969246;28;20097;-64
2024/02/18 06:16:40;;;;;;;22.77;14.82;;;7.70;99.90;;;;;;4961956;28;20070;-64
2024/02/18 06:19:06;;;;;;;25.17;16.17;;;7.80;99.90;;;;;;4962087;28;20120;-65
2024/02/18 06:21:33;;;;;;;20.98;15.35;;;7.80;99.90;;;;;;4964509;28;20046;-64
2024/02/18 06:24:01;;;;;;;20.50;14.85;;;7.90;99.90;;;;;;4963145;28;20054;-65
2024/02/18 06:26:28;;;;;;;21.33;15.45;;;7.90;99.90;;;;;;4966173;28;20055;-64
2024/02/18 06:28:55;;;;;;;21.23;13.43;;;7.90;99.90;;;;;;4963267;28;20082;-65
2024/02/18 06:31:22;;;;;;;20.73;14.40;;;7.90;99.90;;;;;;4961038;28;20658;-65
2024/02/18 06:33:49;;;;;;;17.10;12.48;;;7.90;99.90;;;;;;4964764;28;20141;-65
2024/02/18 06:36:16;;;;;;;19.35;12.85;;;7.90;99.90;;;;;;4962946;28;20062;-66
2024/02/18 06:38:44;;;;;;;13.93;10.52;;;7.90;99.90;;;;;;4965899;28;20058;-65
2024/02/18 06:41:11;;;;;;;14.40;9.45;;;7.90;99.90;;;;;;4963489;28;20046;-65
2024/02/18 06:43:38;;;;;;;15.75;10.07;;;7.80;99.90;;;;;;4968099;28;20054;-65
2024/02/18 06:46:05;;;;;;;14.40;9.30;;;7.70;99.90;;;;;;4969367;28;20126;-64
2024/02/18 06:48:35;;;;;;;11.23;8.98;;;7.70;99.90;;;;;;4961430;28;20079;-65
2024/02/18 06:51:01;;;;;;;14.15;9.65;;;7.60;99.90;;;;;;4971347;28;20046;-65
2024/02/18 06:53:28;;;;;;;12.25;7.65;;;7.60;99.90;;;;;;4968134;28;20050;-66
2024/02/18 06:55:55;;;;;;;11.05;7.85;;;7.60;99.90;;;;;;4966025;28;20078;-65
2024/02/18 06:58:22;;;;;;;12.88;8.80;;;7.60;99.90;;;;;;4959597;28;20149;-65
2024/02/18 07:00:48;;;;;;;22.55;14.13;;;7.60;99.90;;;;;;4961229;28;20096;-65
2024/02/18 07:03:15;;;;;;;22.27;13.57;;;7.60;99.90;;;;;;4963698;28;20050;-65
2024/02/18 07:05:42;;;;;;;19.73;14.15;;;7.70;99.90;;;;;;4967401;28;20131;-63
2024/02/18 07:08:09;;;;;;;21.65;14.32;;;7.70;99.90;;;;;;4965290;28;20214;-65
2024/02/18 07:10:36;;;;;;;25.80;16.75;;;7.80;99.90;;;;;;4965442;28;20179;-66
2024/02/18 07:13:03;;;;;;;29.10;17.63;;;7.90;99.90;;;;;;4968003;28;20046;-65
2024/02/18 07:15:29;;;;;;;24.83;19.27;;;8.00;99.90;;;;;;4951465;28;20050;-64
2024/02/18 07:17:56;;;;;;;23.92;16.85;;;8.10;99.90;;;;;;4965564;28;20046;-64
2024/02/18 07:20:24;;;;;;;24.48;16.40;;;8.30;99.90;;;;;;4965985;28;20047;-64
2024/02/18 07:23:00;;;;;;;24.60;16.98;;;8.50;99.90;;;;;;4961146;28;20059;-64
2024/02/18 07:25:35;;;;;;;25.15;16.33;;;8.70;99.90;;;;;;4946570;28;20043;-64
2024/02/18 07:28:03;;;;;;;32.33;24.30;;;8.90;99.90;;;;;;4951600;28;20158;-64
2024/02/18 07:30:30;;;;;;;37.80;26.20;;;9.20;99.90;;;;;;4964088;28;20078;-64
2024/02/18 07:32:57;;;;;;;36.90;25.48;;;9.20;99.90;;;;;;4969227;28;20049;-64
2024/02/18 07:35:24;;;;;;;39.22;24.70;;;9.40;99.90;;;;;;4964735;28;20042;-64
2024/02/18 07:37:51;;;;;;;32.33;24.42;;;9.60;99.90;;;;;;4966316;28;20361;-64
2024/02/18 07:40:18;;;;;;;31.73;25.85;;;9.70;99.90;;;;;;4963020;28;20047;-64
2024/02/18 07:42:44;;;;;;;36.95;25.75;;;9.80;99.90;;;;;;4958235;28;20134;-64
2024/02/18 07:45:11;;;;;;;35.80;25.02;;;9.80;99.90;;;;;;4959808;28;20074;-64
2024/02/18 07:47:38;;;;;;;37.88;24.02;;;9.70;99.90;;;;;;4960452;28;20142;-64
2024/02/18 07:50:07;;;;;;;32.45;24.08;;;9.70;99.90;;;;;;4963706;28;20121;-64
2024/02/18 07:52:34;;;;;;;30.80;23.52;;;9.80;99.90;;;;;;4960784;28;20066;-64
2024/02/18 07:55:01;;;;;;;34.47;24.48;;;9.80;99.90;;;;;;4960674;28;20059;-64
2024/02/18 07:57:28;;;;;;;45.42;30.77;;;9.80;99.90;;;;;;4944980;28;20496;-64
2024/02/18 07:59:55;;;;;;;35.72;25.48;;;9.90;99.90;;;;;;4960270;28;20043;-64
2024/02/18 08:02:26;;;;;;;31.00;23.10;;;10.00;99.90;;;;;;4961349;28;20127;-64
2024/02/18 08:04:53;;;;;;;30.75;23.40;;;10.10;99.90;;;;;;4966932;28;20428;-64
2024/02/18 08:07:23;;;;;;;33.85;24.02;;;10.20;99.90;;;;;;4966513;28;20068;-64
2024/02/18 08:09:50;;;;;;;34.13;24.05;;;10.20;99.90;;;;;;4970857;28;20137;-64
2024/02/18 08:12:17;;;;;;;34.25;23.52;;;10.20;99.90;;;;;;4963612;28;20222;-64
2024/02/18 08:14:44;;;;;;;33.55;24.48;;;10.20;99.90;;;;;;4964667;28;20058;-64
2024/02/18 08:17:18;;;;;;;32.30;25.20;;;10.20;99.90;;;;;;4964655;28;20444;-64
2024/02/18 08:19:45;;;;;;;38.28;26.20;;;10.20;99.90;;;;;;4963764;28;20100;-64
2024/02/18 08:22:12;;;;;;;39.25;25.83;;;10.20;99.90;;;;;;4963056;28;20057;-64
2024/02/18 08:24:44;;;;;;;33.60;25.08;;;10.20;99.90;;;;;;4959132;28;20058;-64
2024/02/18 08:27:11;;;;;;;31.77;23.73;;;10.10;99.90;;;;;;4962184;28;20074;-64
2024/02/18 08:29:38;;;;;;;31.85;24.00;;;10.00;99.90;;;;;;4959266;28;20147;-64
2024/02/18 08:32:06;;;;;;;39.95;25.30;;;10.00;99.90;;;;;;4958142;28;20066;-64
2024/02/18 08:34:33;;;;;;;34.50;23.85;;;10.20;99.90;;;;;;4958422;28;20137;-64
2024/02/18 08:37:00;;;;;;;31.70;24.83;;;10.30;99.90;;;;;;4959970;28;20057;-64
2024/02/18 08:39:26;;;;;;;33.75;23.88;;;10.40;99.90;;;;;;4959775;28;20043;-64
2024/02/18 08:41:55;;;;;;;35.50;25.00;;;10.30;99.90;;;;;;4964234;28;20050;-64
2024/02/18 08:44:22;;;;;;;34.65;23.65;;;10.40;99.90;;;;;;4959644;28;20074;-64
2024/02/18 08:46:50;;;;;;;30.33;23.13;;;10.40;99.90;;;;;;4959262;28;20062;-64
2024/02/18 08:49:17;;;;;;;31.75;23.80;;;10.50;99.90;;;;;;4960942;28;20058;-64
2024/02/18 08:51:44;;;;;;;30.17;21.98;;;10.50;99.90;;;;;;4969253;28;20420;-64
2024/02/18 08:54:11;;;;;;;33.17;22.42;;;10.60;99.90;;;;;;4973986;23;20094;-63
2024/02/18 08:56:37;;;;;;;31.50;23.15;;;10.60;99.90;;;;;;4949010;28;20563;-63
2024/02/18 08:59:06;;;;;;;32.30;23.33;;;10.70;99.90;;;;;;4951653;28;20055;-63
2024/02/18 09:01:33;;;;;;;32.78;23.77;;;10.80;99.90;;;;;;4948184;28;20095;-63
2024/02/18 09:04:00;;;;;;;34.55;23.75;;;10.80;99.90;;;;;;4946873;28;20106;-63
2024/02/18 09:06:27;;;;;;;36.75;25.35;;;10.80;99.90;;;;;;4948869;28;20106;-63
2024/02/18 09:08:54;;;;;;;32.80;23.95;;;10.90;99.90;;;;;;4948433;29;20047;-63
2024/02/18 09:11:21;;;;;;;31.48;22.83;;;11.00;99.90;;;;;;4947603;28;20419;-63
2024/02/18 09:13:48;;;;;;;32.15;22.98;;;11.00;99.90;;;;;;4940898;28;20171;-63
2024/02/18 09:16:15;;;;;;;28.52;22.65;;;11.10;99.90;;;;;;4945479;28;20051;-63
2024/02/18 09:18:44;;;;;;;34.65;24.75;;;11.20;99.90;;;;;;4941700;28;20051;-63
2024/02/18 09:21:10;;;;;;;30.08;23.33;;;11.30;99.90;;;;;;4944674;28;20066;-63
2024/02/18 09:23:37;;;;;;;31.02;23.48;;;11.30;99.90;;;;;;4943553;28;20477;-63
2024/02/18 09:26:04;;;;;;;32.95;23.85;;;11.40;99.90;;;;;;4942284;28;20133;-63
2024/02/18 09:28:31;;;;;;;31.55;23.73;;;11.50;99.90;;;;;;4951391;28;20047;-62
2024/02/18 09:31:00;;;;;;;30.70;23.10;;;11.40;99.90;;;;;;4943797;28;20052;-63
2024/02/18 09:33:27;;;;;;;29.35;21.40;;;11.50;99.90;;;;;;4941601;28;20712;-63
2024/02/18 09:35:54;;;;;;;30.77;22.23;;;11.60;99.90;;;;;;4942734;28;20059;-62
2024/02/18 09:38:21;;;;;;;29.55;21.13;;;11.60;99.90;;;;;;4938417;28;20043;-63
2024/02/18 09:40:49;;;;;;;28.42;19.88;;;11.70;99.90;;;;;;4943176;28;21148;-63
2024/02/18 09:43:16;;;;;;;28.92;21.30;;;11.60;99.90;;;;;;4943506;28;20134;-63
2024/02/18 09:45:46;;;;;;;25.58;19.27;;;11.80;99.90;;;;;;4943549;28;20138;-63
2024/02/18 09:48:16;;;;;;;25.05;19.63;;;11.80;99.90;;;;;;4946313;28;20079;-63
2024/02/18 09:50:43;;;;;;;28.75;20.23;;;11.90;99.90;;;;;;4943979;28;20518;-62
2024/02/18 09:53:12;;;;;;;24.15;18.77;;;12.00;99.90;;;;;;4946694;28;20161;-62
2024/02/18 09:55:40;;;;;;;24.58;19.13;;;12.10;99.90;;;;;;4944390;28;20063;-62
2024/02/18 09:58:07;;;;;;;25.90;19.50;;;12.10;99.90;;;;;;4944928;28;20099;-63
2024/02/18 10:00:36;;;;;;;24.88;18.90;;;12.20;99.90;;;;;;4946487;28;20523;-63
2024/02/18 10:03:03;;;;;;;24.98;18.20;;;12.30;99.90;;;;;;4945868;28;20059;-63
2024/02/18 10:05:32;;;;;;;26.30;18.40;;;12.40;99.90;;;;;;4946408;28;20476;-63
2024/02/18 10:08:05;;;;;;;22.20;17.10;;;12.40;99.90;;;;;;4947114;28;20044;-63
2024/02/18 10:10:35;;;;;;;23.95;17.70;;;12.50;99.90;;;;;;4951383;28;20504;-63
2024/02/18 10:13:03;;;;;;;;;;;12.40;99.90;;;;;;4945254;28;20145;-63
2024/02/18 10:15:32;;;;;;;21.15;15.75;;;12.50;99.90;;;;;;4947072;28;19930;-63
2024/02/18 10:18:03;;;;;;;21.63;16.95;;;12.50;99.90;;;;;;4956457;28;20047;-63
2024/02/18 10:20:30;;;;;;;20.98;15.65;;;12.50;99.90;;;;;;4948597;28;20140;-63
2024/02/18 10:22:57;;;;;;;22.65;15.52;;;12.50;99.90;;;;;;4953189;28;20126;-63
2024/02/18 10:25:24;;;;;;;19.45;15.05;;;12.50;99.90;;;;;;4953948;28;20071;-63
2024/02/18 10:27:57;;;;;;;20.85;15.57;;;12.50;99.90;;;;;;4937454;28;20055;-63
2024/02/18 10:30:23;;;;;;;22.95;16.42;;;12.40;99.90;;;;;;4952350;28;20054;-63
2024/02/18 10:32:50;;;;;;;20.75;15.82;;;12.50;99.90;;;;;;4946753;28;20061;-63
2024/02/18 10:35:17;;;;;;;21.42;15.80;;;12.50;99.90;;;;;;4948746;28;20460;-63
2024/02/18 10:37:45;;;;;;;21.15;15.18;;;12.70;99.90;;;;;;4949509;28;20055;-63
2024/02/18 10:40:15;;;;;;;21.38;16.17;;;12.80;99.90;;;;;;4949908;28;20043;-63
2024/02/18 10:42:47;;;;;;;20.35;15.32;;;13.00;99.90;;;;;;4945471;28;20544;-63
2024/02/18 10:45:14;;;;;;;21.58;14.88;;;13.00;99.90;;;;;;4945494;28;20576;-63
2024/02/18 10:47:48;;;;;;;20.23;15.63;;;13.20;99.90;;;;;;4944116;28;20059;-63
2024/02/18 10:50:17;;;;;;;22.27;15.65;;;13.10;99.90;;;;;;4947192;28;20059;-63
2024/02/18 10:52:47;;;;;;;19.10;14.90;;;13.20;99.90;;;;;;4952197;28;20048;-63
2024/02/18 10:55:24;;;;;;;20.75;15.63;;;13.30;99.90;;;;;;4951709;28;20133;-63
2024/02/18 10:58:11;;;;;;;21.23;14.45;;;13.50;99.90;;;;;;4954589;28;20047;-63
2024/02/18 11:00:41;;;;;;;21.48;14.68;;;13.50;99.90;;;;;;4946925;28;20058;-63
2024/02/18 11:03:29;;;;;;;22.92;15.88;;;13.60;99.90;;;;;;4950328;29;20055;-63
2024/02/18 11:06:00;;;;;;;18.80;13.93;;;13.80;99.90;;;;;;4949594;29;20051;-63
2024/02/18 11:08:29;;;;;;;19.83;14.20;;;13.90;99.90;;;;;;4951190;28;20053;-63
2024/02/18 11:10:56;;;;;;;17.73;13.90;;;14.00;99.90;;;;;;4948846;28;20051;-63
2024/02/18 11:13:25;;;;;;;16.95;13.40;;;14.10;99.90;;;;;;4950152;29;20793;-63
2024/02/18 11:15:53;;;;;;;19.08;13.63;;;14.20;99.90;;;;;;4951120;28;20055;-63
2024/02/18 11:18:21;;;;;;;18.25;13.75;;;14.20;99.90;;;;;;4945739;28;20055;-63
2024/02/18 11:20:48;;;;;;;18.60;13.82;;;14.30;99.90;;;;;;4948800;28;20047;-63
2024/02/18 11:23:15;;;;;;;19.10;15.02;;;14.30;99.90;;;;;;4951749;28;20047;-62
2024/02/18 11:25:44;;;;;;;18.35;13.50;;;14.50;99.90;;;;;;4951173;28;20508;-63
2024/02/18 11:28:12;;;;;;;19.65;12.63;;;14.50;99.90;;;;;;4950290;28;20090;-63
2024/02/18 11:30:39;;;;;;;15.27;10.02;;;14.40;99.90;;;;;;4948393;28;20159;-63
2024/02/18 11:33:07;;;;;;;12.38;9.30;;;14.40;99.90;;;;;;4950253;28;20066;-63
2024/02/18 11:35:34;;;;;;;15.45;11.65;;;14.40;99.90;;;;;;4939555;28;20484;-63
2024/02/18 11:38:01;;;;;;;16.48;11.68;;;14.40;99.90;;;;;;4940664;28;20056;-63
2024/02/18 11:40:33;;;;;;;14.00;10.13;;;14.40;99.90;;;;;;4941544;28;20047;-63
2024/02/18 11:43:00;;;;;;;12.90;9.05;;;14.50;99.90;;;;;;4943835;28;20508;-63
2024/02/18 11:45:27;;;;;;;13.10;8.57;;;14.50;99.90;;;;;;4936315;28;21445;-64
2024/02/18 11:47:55;;;;;;;14.15;10.48;;;14.50;99.90;;;;;;4945249;28;20142;-63
2024/02/18 11:50:23;;;;;;;15.38;10.32;;;14.50;99.90;;;;;;4943918;28;20110;-63
2024/02/18 11:52:50;;;;;;;12.00;8.70;;;14.50;99.90;;;;;;4944880;28;20055;-63
2024/02/18 11:55:22;;;;;;;8.23;6.30;;;14.40;99.90;;;;;;4946824;28;20456;-63
2024/02/18 11:57:49;;;;;;;7.93;5.97;;;14.30;99.90;;;;;;4943213;28;20526;-63
2024/02/18 12:00:17;;;;;;;7.80;5.50;;;14.30;99.90;;;;;;4946197;28;20058;-63
2024/02/18 12:02:50;;;;;;;7.18;5.38;;;14.40;99.90;;;;;;4948592;29;20043;-63
2024/02/18 12:05:18;;;;;;;7.50;5.68;;;14.50;99.90;;;;;;4942279;29;20083;-63
2024/02/18 12:07:49;;;;;;;10.73;7.03;;;14.50;99.90;;;;;;4946680;28;20106;-63
2024/02/18 12:10:17;;;;;;;7.80;6.50;;;14.50;99.90;;;;;;4948619;28;20059;-63
2024/02/18 12:12:44;;;;;;;9.55;6.28;;;14.40;99.90;;;;;;4949220;28;20055;-63
2024/02/18 12:15:22;;;;;;;8.30;6.90;;;14.30;99.90;;;;;;4945512;28;20054;-63
2024/02/18 12:17:52;;;;;;;8.63;7.00;;;14.20;99.90;;;;;;4948964;28;20051;-63
2024/02/18 12:20:22;;;;;;;10.50;7.60;;;14.30;99.90;;;;;;4945329;28;20043;-63
2024/02/18 12:22:49;;;;;;;10.82;8.38;;;14.20;99.90;;;;;;4945268;28;20054;-63
2024/02/18 12:25:16;;;;;;;9.75;7.30;;;14.10;99.90;;;;;;4948182;28;20051;-63
2024/02/18 12:27:43;;;;;;;8.77;7.38;;;14.00;99.90;;;;;;4943593;28;20645;-63
2024/02/18 12:30:15;;;;;;;10.70;7.68;;;14.10;99.90;;;;;;4946506;28;20535;-63
2024/02/18 12:32:42;;;;;;;11.00;7.75;;;14.10;99.90;;;;;;4943755;28;20459;-63
2024/02/18 12:35:10;;;;;;;12.55;8.38;;;14.10;99.90;;;;;;4948145;29;20134;-63
2024/02/18 12:37:37;;;;;;;9.40;7.10;;;14.20;99.90;;;;;;4944568;29;20058;-63
2024/02/18 12:40:05;;;;;;;11.73;8.65;;;14.20;99.90;;;;;;4944015;29;20047;-64